Nearby METAR Reports

 

KMTN - Baltimore/Martin, Maryland, USA
Distance from station: SSE 8mi, 13km
Updated: Tue, 19-Sep-2017 8:50am EDT
Mostly cloudy
Mostly cloudy
 Wind from NNW
Wind: NNW 10 mph , 17 km/h
Temperature: 72°F , 22°C
Dew Point: 70°F , 21°C
Humidity: 94%
Barometer: 29.99 inHg , 1015.6 hPa
Clouds: Mostly cloudy
Visibility: 10 miles , 16 km
Cloud details: Mostly cloudy 1500 ft
2017/09/19 12:50 KMTN 191250Z 34009KT 10SM BKN015 22/21 A2999
KDMH - Baltimore/Dwntwn, Maryland, USA
Distance from station: SW 12mi, 19km
Updated: Tue, 19-Sep-2017 8:54am EDT

 
Temperature: 73°F , 23°C
Dew Point: 66°F , 19°C
Humidity: 78%
Barometer: 29.99 inHg , 1015.6 hPa
2017/09/19 12:54 KDMH 191254Z AUTO 23/19 A2999 RMK AO1 SLP154 T02280194
 
KBWI - Balto/Wash Intl, Maryland, USA
Distance from station: SSW 20mi, 33km
Updated: Tue, 19-Sep-2017 8:54am EDT
Mostly cloudy
Mostly cloudy
 Wind from NNE
Wind: NNE 7 mph , 11 km/h
Temperature: 72°F , 22°C
Dew Point: 66°F , 19°C
Humidity: 83%
Barometer: 29.98 inHg , 1015.2 hPa
Clouds: Mostly cloudy
Visibility: 10 miles , 16 km
Cloud details: Mostly cloudy 1600 ft
Mostly cloudy 2800 ft
Mostly cloudy 16000 ft
2017/09/19 12:54 KBWI 191254Z 02006KT 10SM BKN016 BKN028 BKN160 22/19 A2998 RMK AO2 SLP151 T02220194
KDMW - Carroll Cnty, Maryland, USA
Distance from station: WNW 30mi, 48km
Updated: Tue, 19-Sep-2017 9:05am EDT
Mist, Overcast
Mist, Overcast
 Wind from NNE
Wind: NNE 6 mph , 9 km/h
Temperature: 68°F , 20°C
Dew Point: 66°F , 19°C
Humidity: 94%
Barometer: 30.03 inHg , 1016.9 hPa
Summary: Mist
Clouds: Overcast
Visibility: 3 miles , 5 km
Cloud details: Overcast 600 ft
2017/09/19 13:05 KDMW 191305Z AUTO 02005KT 3SM BR OVC006 20/19 A3003 RMK AO2
 
KNAK - Annapolis/Naval, Maryland, USA
Distance from station: S 30mi, 48km
Updated: Tue, 19-Sep-2017 8:54am EDT
Overcast
Overcast
 Wind from N
Wind: N 8 mph , 13 km/h
Temperature: 73°F , 23°C
Dew Point: 72°F , 22°C
Humidity: 94%
Barometer: 29.97 inHg , 1014.9 hPa
Clouds: Overcast
Visibility: 10 miles , 16 km
Cloud details: Overcast 1700 ft
2017/09/19 12:54 KNAK 191254Z AUTO 01007KT 10SM OVC017 23/22 A2997 RMK AO2 SLP151 T02330217
KW29 - Stevensville, Maryland, USA
Distance from station: SSE 31mi, 50km
Updated: Tue, 19-Sep-2017 9:00am EDT
Overcast
Overcast
 Wind from NNE
Wind: NNE 10 mph , 17 km/h
Temperature: 72°F , 22°C
Dew Point: 66°F , 19°C
Humidity: 83%
Barometer: 29.97 inHg , 1014.9 hPa
Clouds: Overcast
Visibility: 7 miles , 11 km
Cloud details: Overcast 1500 ft
2017/09/19 13:00 KW29 191300Z AUTO 03009KT 7SM OVC015 22/19 A2997 RMK AO2
 
KCGS - College Park, Maryland, USA
Distance from station: SW 38mi, 61km
Updated: Tue, 19-Sep-2017 9:06am EDT
Mostly cloudy
Mostly cloudy
 Wind from N
Wind: N 6 mph , 9 km/h
Temperature: 72°F , 22°C
Dew Point: 66°F , 19°C
Humidity: 83%
Barometer: 29.99 inHg , 1015.6 hPa
Clouds: Mostly cloudy
Visibility: 10 miles , 16 km
Cloud details: Mostly cloudy 1500 ft
2017/09/19 13:06 KCGS 191306Z AUTO 36005KT 10SM BKN015 22/19 A2999 RMK AO1 T02160185
KGAI - Gaithersburg, Maryland, USA
Distance from station: WSW 40mi, 65km
Updated: Tue, 19-Sep-2017 8:56am EDT
Overcast
Overcast
 Wind from varies
Wind: varies 3 mph , 6 km/h
Temperature: 68°F , 20°C
Dew Point: 66°F , 19°C
Humidity: 94%
Barometer: 30.03 inHg , 1016.9 hPa
Clouds: Overcast
Visibility: 10 miles , 16 km
Cloud details: Overcast 1300 ft
2017/09/19 12:56 KGAI 191256Z AUTO VRB03KT 10SM OVC013 20/19 A3003 RMK AO2 SLP192 T02000189
 
KTHV - York, Pennsylvania, USA
Distance from station: NNW 40mi, 65km
Updated: Tue, 19-Sep-2017 8:53am EDT
Overcast
Overcast
 Wind from NNW
Wind: NNW 6 mph , 9 km/h
Temperature: 68°F , 20°C
Dew Point: 66°F , 19°C
Humidity: 94%
Barometer: 30.03 inHg , 1016.9 hPa
Clouds: Overcast
Visibility: 10 miles , 16 km
Cloud details: Overcast 1800 ft
2017/09/19 12:53 KTHV 191253Z AUTO 34005KT 10SM OVC018 20/19 A3003 RMK AO2 SLP170 T02000189
KFDK - Frederick, Maryland, USA
Distance from station: W 47mi, 75km
Updated: Tue, 19-Sep-2017 8:48am EDT
Mostly cloudy
Mostly cloudy
 Wind from N
Wind: N 6 mph , 9 km/h
Temperature: 72°F , 22°C
Dew Point: 72°F , 22°C
Humidity: 100%
Barometer: 30.06 inHg , 1017.9 hPa
Clouds: Mostly cloudy
Visibility: 5 miles , 8 km
Cloud details: Partly cloudy 1000 ft
Mostly cloudy 2000 ft
2017/09/19 12:48 KFDK 191248Z 01005KT 5SM SCT010 BKN020 22/22 A3006 BR
 
KESN - Easton/Newnam, Maryland, USA
Distance from station: SSE 48mi, 78km
Updated: Tue, 19-Sep-2017 8:45am EDT
Partly cloudy
Partly cloudy
 Wind from NNE
Wind: NNE 13 mph , 20 km/h, Gust: 22 mph , 35 km/h
Temperature: 73°F , 23°C
Dew Point: 66°F , 19°C
Humidity: 78%
Barometer: 29.97 inHg , 1014.9 hPa
Clouds: Partly cloudy
Visibility: 10 miles , 16 km
Cloud details: Partly cloudy 1300 ft
2017/09/19 12:45 KESN 191245Z 02011G19KT 10SM SCT013 23/19 A2997
KDCA - Washington/Natl, Washington D.c., USA
Distance from station: SW 49mi, 79km
Updated: Tue, 19-Sep-2017 8:52am EDT
Overcast
Overcast
 Wind from N
Wind: N 12 mph , 19 km/h
Temperature: 72°F , 22°C
Dew Point: 66°F , 19°C
Humidity: 83%
Barometer: 30.00 inHg , 1015.9 hPa
Clouds: Overcast
Visibility: 10 miles , 16 km
Cloud details: Overcast 1500 ft
2017/09/19 12:52 KDCA 191252Z 35010KT 10SM OVC015 22/19 A3000 RMK AO2 SLP157 OCNL BINOVC T02220194
 
KLNS - Lancaster, Pennsylvania, USA
Distance from station: N 49mi, 79km
Updated: Tue, 19-Sep-2017 8:53am EDT
Overcast
Overcast
 Wind from ENE
Wind: ENE 12 mph , 19 km/h
Temperature: 70°F , 21°C
Dew Point: 66°F , 19°C
Humidity: 88%
Barometer: 30.03 inHg , 1016.9 hPa
Clouds: Overcast
Visibility: 10 miles , 16 km
Cloud details: Overcast 1000 ft
2017/09/19 12:53 KLNS 191253Z 06010KT 10SM OVC010 21/19 A3003 RMK AO2 SLP165 T02060194
KILG - Wilmington, Delaware, USA
Distance from station: ENE 50mi, 81km
Updated: Tue, 19-Sep-2017 9:04am EDT
Overcast
Overcast
 Wind from NNE
Wind: NNE 13 mph , 20 km/h
Temperature: 72°F , 22°C
Dew Point: 68°F , 20°C
Humidity: 88%
Barometer: 29.99 inHg , 1015.6 hPa
Clouds: Overcast
Visibility: 10 miles , 16 km
Cloud details: Overcast 1500 ft
2017/09/19 13:04 KILG 191304Z 02011KT 10SM OVC015 22/20 A2999 RMK AO2 T02220200 $